Time;durP1;ratioP1;P1;durP2;ratioP2;P2;SDS_P1;SDS_P2;PMS_P1;PMS_P2;Temp;Humidity;BMP_temperature;BMP_pressure;BME280_temperature;BME280_humidity;BME280_pressure;Samples;Min_cycle;Max_cycle;Signal;HPM_P1;HPM_P2
2021/05/17 00:01:18;;;;;;;13.30;5.32;;;13.30;62.00;;;;;;5053091;28;20041;-63
2021/05/17 00:03:49;;;;;;;10.23;5.10;;;13.40;62.10;;;;;;5056553;28;20743;-64
2021/05/17 00:06:16;;;;;;;8.63;5.30;;;13.40;62.00;;;;;;5052501;28;20189;-63
2021/05/17 00:08:42;;;;;;;10.80;5.20;;;13.40;61.90;;;;;;5051517;28;20517;-63
2021/05/17 00:11:10;;;;;;;9.13;4.60;;;13.40;61.90;;;;;;5051715;28;20032;-63
2021/05/17 00:13:36;;;;;;;10.60;5.85;;;13.40;61.80;;;;;;5058766;28;20052;-63
2021/05/17 00:16:06;;;;;;;10.20;5.43;;;13.50;61.90;;;;;;5057630;28;20049;-63
2021/05/17 00:18:32;;;;;;;8.00;4.82;;;13.50;61.80;;;;;;5055799;28;20052;-63
2021/05/17 00:20:58;;;;;;;10.18;5.47;;;13.50;61.90;;;;;;5062600;28;20036;-63
2021/05/17 00:23:29;;;;;;;14.15;6.53;;;13.50;61.80;;;;;;5048621;28;20036;-63
2021/05/17 00:25:57;;;;;;;10.80;6.50;;;13.50;61.80;;;;;;5049737;28;20047;-64
2021/05/17 00:28:22;;;;;;;13.77;7.13;;;13.50;61.80;;;;;;5051468;28;20036;-64
2021/05/17 00:30:51;;;;;;;12.60;7.22;;;13.50;61.90;;;;;;5048823;28;20060;-64
2021/05/17 00:33:19;;;;;;;14.13;6.93;;;13.50;62.00;;;;;;5051227;28;20058;-63
2021/05/17 00:35:50;;;;;;;11.68;7.10;;;13.50;62.10;;;;;;5052048;28;20036;-63
2021/05/17 00:38:21;;;;;;;11.07;6.68;;;13.50;62.00;;;;;;5048102;28;20040;-64
2021/05/17 00:40:52;;;;;;;14.55;7.25;;;13.50;61.90;;;;;;5045111;28;20554;-63
2021/05/17 00:43:24;;;;;;;14.40;7.05;;;13.50;61.80;;;;;;5052717;28;20043;-64
2021/05/17 00:45:52;;;;;;;16.67;6.88;;;13.50;61.80;;;;;;5048314;28;20047;-64
2021/05/17 00:48:20;;;;;;;12.93;7.05;;;13.50;61.80;;;;;;5047859;28;20858;-62
2021/05/17 00:50:48;;;;;;;14.23;6.95;;;13.50;61.80;;;;;;5049832;28;20098;-64
2021/05/17 00:53:14;;;;;;;15.70;7.20;;;13.50;61.80;;;;;;5053677;28;20043;-63
2021/05/17 00:55:42;;;;;;;12.75;5.97;;;13.50;61.80;;;;;;5048162;28;20044;-63
2021/05/17 00:58:08;;;;;;;8.25;5.20;;;13.50;61.80;;;;;;5053897;28;20043;-63
2021/05/17 01:00:33;;;;;;;12.57;5.70;;;13.40;61.70;;;;;;5050735;28;20029;-63
2021/05/17 01:02:59;;;;;;;9.40;6.00;;;13.40;61.60;;;;;;5054114;28;20521;-63
2021/05/17 01:05:25;;;;;;;11.45;6.13;;;13.40;61.60;;;;;;5055966;28;20036;-63
2021/05/17 01:07:53;;;;;;;11.00;6.22;;;13.30;61.60;;;;;;5044979;28;20044;-63
2021/05/17 01:10:21;;;;;;;14.13;6.30;;;13.30;61.60;;;;;;5041679;28;20036;-64
2021/05/17 01:12:51;;;;;;;9.05;5.78;;;13.20;61.50;;;;;;5044034;28;20033;-63
2021/05/17 01:15:18;;;;;;;8.73;5.35;;;13.20;61.40;;;;;;5044294;28;20303;-64
2021/05/17 01:17:44;;;;;;;18.02;7.07;;;13.10;61.30;;;;;;5048381;28;20037;-63
2021/05/17 01:20:15;;;;;;;12.25;6.10;;;13.10;61.40;;;;;;5033094;28;20040;-64
2021/05/17 01:22:59;;;;;;;17.70;7.60;;;13.00;61.50;;;;;;5051169;28;20043;-64
2021/05/17 01:25:28;;;;;;;21.67;7.70;;;13.00;61.60;;;;;;5051256;28;20032;-64
2021/05/17 01:27:54;;;;;;;13.20;7.88;;;12.90;61.60;;;;;;5049996;28;20075;-63
2021/05/17 01:30:26;;;;;;;15.63;7.63;;;12.90;61.80;;;;;;5047051;28;20513;-64
2021/05/17 01:32:54;;;;;;;11.75;6.30;;;12.90;61.90;;;;;;5052387;28;20036;-65
2021/05/17 01:35:24;;;;;;;12.77;6.93;;;12.90;61.90;;;;;;5054490;28;21374;-63
2021/05/17 01:37:51;;;;;;;12.13;7.68;;;12.90;61.80;;;;;;5066150;28;20040;-64
2021/05/17 01:40:19;;;;;;;16.40;7.70;;;12.80;62.10;;;;;;5046099;28;20512;-64
2021/05/17 01:42:48;;;;;;;20.17;7.95;;;12.80;62.40;;;;;;5049901;28;20052;-64
2021/05/17 01:45:16;;;;;;;17.00;8.07;;;12.80;62.70;;;;;;5048864;28;20048;-63
2021/05/17 01:47:43;;;;;;;19.70;8.57;;;12.90;62.70;;;;;;5055795;28;20031;-63
2021/05/17 01:50:11;;;;;;;18.05;8.25;;;12.90;62.70;;;;;;5050747;28;20028;-63
2021/05/17 01:52:37;;;;;;;14.57;6.32;;;12.90;62.60;;;;;;5055333;28;20040;-64
2021/05/17 01:55:09;;;;;;;10.07;6.28;;;12.90;62.40;;;;;;5062413;28;20036;-63
2021/05/17 01:57:35;;;;;;;12.82;6.35;;;12.90;63.10;;;;;;5049481;28;20043;-64
2021/05/17 02:00:02;;;;;;;9.90;5.32;;;12.90;62.20;;;;;;5050020;28;20071;-64
2021/05/17 02:02:30;;;;;;;13.50;6.30;;;12.80;62.00;;;;;;5050808;28;20132;-63
2021/05/17 02:04:58;;;;;;;16.65;6.95;;;12.80;62.10;;;;;;5067459;28;20090;-63
2021/05/17 02:07:26;;;;;;;13.50;7.43;;;12.70;62.20;;;;;;5040494;28;20036;-62
2021/05/17 02:09:53;;;;;;;16.88;8.07;;;12.70;62.30;;;;;;5053959;28;20387;-63
2021/05/17 02:12:28;;;;;;;21.65;8.93;;;12.70;62.60;;;;;;5050454;28;20040;-63
2021/05/17 02:14:55;;;;;;;23.45;10.00;;;12.80;62.70;;;;;;5049563;28;20155;-64
2021/05/17 02:17:25;;;;;;;21.65;8.93;;;12.80;62.70;;;;;;5055941;28;20041;-64
2021/05/17 02:19:51;;;;;;;18.17;8.00;;;12.80;62.80;;;;;;5044562;28;20789;-64
2021/05/17 02:22:21;;;;;;;19.55;8.63;;;12.80;62.70;;;;;;5059833;28;20104;-63
2021/05/17 02:24:47;;;;;;;14.68;7.97;;;12.90;62.70;;;;;;5058623;28;20032;-64
2021/05/17 02:27:17;;;;;;;17.85;8.73;;;12.80;62.60;;;;;;5047456;28;20040;-64
2021/05/17 02:29:45;;;;;;;21.95;8.75;;;12.80;62.60;;;;;;5046913;28;20057;-63
2021/05/17 02:32:24;;;;;;;22.10;10.07;;;12.80;62.70;;;;;;5043571;28;20097;-64
2021/05/17 02:34:54;;;;;;;22.35;10.25;;;12.90;63.50;;;;;;5052228;28;20512;-63
2021/05/17 02:37:20;;;;;;;24.67;9.10;;;12.80;62.70;;;;;;5050846;28;20044;-63
2021/05/17 02:39:49;;;;;;;20.17;8.93;;;12.90;62.70;;;;;;5045988;28;20071;-64
2021/05/17 02:42:17;;;;;;;17.48;10.00;;;12.90;62.80;;;;;;5048556;28;20327;-64
2021/05/17 02:44:46;;;;;;;20.65;10.90;;;12.80;62.60;;;;;;5052952;28;20036;-63
2021/05/17 02:47:12;;;;;;;27.88;10.90;;;12.90;62.70;;;;;;5052392;28;20524;-64
2021/05/17 02:49:38;;;;;;;13.32;7.60;;;12.90;62.70;;;;;;5044757;28;20037;-63
2021/05/17 02:52:04;;;;;;;12.75;6.38;;;12.80;62.70;;;;;;5053996;28;20074;-63
2021/05/17 02:54:37;;;;;;;8.82;5.65;;;12.80;62.60;;;;;;5050347;28;20037;-63
2021/05/17 02:57:10;;;;;;;11.63;6.47;;;12.80;62.70;;;;;;5047140;28;20485;-63
2021/05/17 03:00:03;;;;;;;11.98;6.63;;;12.70;62.60;;;;;;5046707;28;20060;-64
2021/05/17 03:02:41;;;;;;;15.27;7.55;;;12.70;62.50;;;;;;5045794;28;20036;-64
2021/05/17 03:05:09;;;;;;;18.80;9.52;;;12.70;62.60;;;;;;5055138;28;20033;-63
2021/05/17 03:07:40;;;;;;;28.17;12.68;;;12.60;62.70;;;;;;5049748;28;20107;-63
2021/05/17 03:10:06;;;;;;;27.63;12.63;;;12.70;63.00;;;;;;5037102;28;20407;-63
2021/05/17 03:12:39;;;;;;;25.85;11.90;;;12.70;63.00;;;;;;5047539;28;20199;-64
2021/05/17 03:15:09;;;;;;;28.00;12.20;;;12.70;63.00;;;;;;5048809;28;20067;-63
2021/05/17 03:17:36;;;;;;;39.72;14.18;;;12.70;63.90;;;;;;5049846;28;21335;-63
2021/05/17 03:20:07;;;;;;;27.40;12.82;;;12.80;63.40;;;;;;5048359;28;20054;-63
2021/05/17 03:22:35;;;;;;;31.50;13.10;;;12.80;63.40;;;;;;5049713;28;20176;-63
2021/05/17 03:25:08;;;;;;;28.75;12.68;;;12.80;63.30;;;;;;5050131;28;20047;-63
2021/05/17 03:27:36;;;;;;;24.65;11.85;;;12.80;63.10;;;;;;5049768;28;20040;-64
2021/05/17 03:30:02;;;;;;;22.95;11.63;;;12.80;62.90;;;;;;5044555;28;20098;-64
2021/05/17 03:32:27;;;;;;;26.25;11.50;;;12.80;62.80;;;;;;5049115;28;20036;-64
2021/05/17 03:34:53;;;;;;;24.75;11.23;;;12.80;62.70;;;;;;5051235;28;20761;-64
2021/05/17 03:37:19;;;;;;;26.58;13.38;;;12.80;62.80;;;;;;5049213;28;20044;-63
2021/05/17 03:39:46;;;;;;;24.50;12.85;;;12.70;62.80;;;;;;5042244;28;20055;-63
2021/05/17 03:42:12;;;;;;;26.27;11.70;;;12.70;62.80;;;;;;5050717;28;20125;-63
2021/05/17 03:44:37;;;;;;;20.88;9.25;;;12.80;63.00;;;;;;5043882;28;20131;-64
2021/05/17 03:47:05;;;;;;;22.60;9.95;;;12.80;62.90;;;;;;5049186;28;20045;-63
2021/05/17 03:49:31;;;;;;;18.33;9.57;;;12.70;62.80;;;;;;5060425;28;20123;-63
2021/05/17 03:51:59;;;;;;;28.83;10.55;;;12.70;62.80;;;;;;5054943;28;20593;-63
2021/05/17 03:54:27;;;;;;;23.50;11.63;;;12.70;62.90;;;;;;5046843;28;20043;-63
2021/05/17 03:56:55;;;;;;;23.52;11.90;;;12.70;63.10;;;;;;5038493;28;20052;-64
2021/05/17 03:59:20;;;;;;;37.45;14.55;;;12.70;63.20;;;;;;5041756;28;20033;-64
2021/05/17 04:01:48;;;;;;;19.52;9.38;;;12.70;63.20;;;;;;5048740;28;20102;-64
2021/05/17 04:04:15;;;;;;;20.80;9.82;;;12.80;63.20;;;;;;5045366;28;20052;-64
2021/05/17 04:14:42;;;;;;;26.48;11.30;;;12.70;62.90;;;;;;5040867;28;20043;-63
2021/05/17 04:17:10;;;;;;;29.88;12.30;;;12.70;63.00;;;;;;5062053;28;20040;-64
2021/05/17 04:19:40;;;;;;;25.60;12.25;;;12.70;63.10;;;;;;5051082;28;20048;-64
2021/05/17 04:22:06;;;;;;;35.35;14.38;;;12.70;63.10;;;;;;5046872;28;20774;-64
2021/05/17 04:24:34;;;;;;;31.95;14.40;;;12.80;63.40;;;;;;5047462;28;20036;-64
2021/05/17 04:27:02;;;;;;;32.30;14.88;;;12.80;63.50;;;;;;5043622;28;20473;-63
2021/05/17 04:29:29;;;;;;;32.97;14.57;;;12.90;63.80;;;;;;5042504;28;20081;-63
2021/05/17 04:31:57;;;;;;;37.08;16.60;;;13.00;64.00;;;;;;5048393;28;20093;-63
2021/05/17 04:34:25;;;;;;;31.05;13.65;;;13.10;63.90;;;;;;5040945;28;24230;-62
2021/05/17 04:36:56;;;;;;;33.03;14.75;;;13.10;63.80;;;;;;5046061;28;20505;-63
2021/05/17 04:39:21;;;;;;;28.60;14.93;;;13.20;63.90;;;;;;5046023;28;20064;-63
2021/05/17 04:41:47;;;;;;;34.08;15.63;;;13.30;64.00;;;;;;5046754;28;20036;-63
2021/05/17 04:44:13;;;;;;;36.92;18.13;;;13.40;64.20;;;;;;5052760;28;20424;-64
2021/05/17 04:46:40;;;;;;;34.95;17.23;;;13.60;64.40;;;;;;5055001;28;20028;-64
2021/05/17 04:49:06;;;;;;;34.80;16.77;;;13.70;64.50;;;;;;5043762;28;20378;-63
2021/05/17 04:51:34;;;;;;;39.15;17.48;;;13.80;64.40;;;;;;5051355;28;20465;-63
2021/05/17 04:53:59;;;;;;;41.80;17.88;;;13.90;64.10;;;;;;5045608;28;20525;-63
2021/05/17 04:56:27;;;;;;;40.67;18.02;;;14.00;64.00;;;;;;5049308;28;20037;-63
2021/05/17 04:58:55;;;;;;;34.17;17.13;;;14.10;64.00;;;;;;5053947;28;20050;-64
2021/05/17 05:01:23;;;;;;;33.90;16.60;;;14.10;63.80;;;;;;5053698;28;20044;-63
2021/05/17 05:03:51;;;;;;;36.97;17.90;;;14.20;63.80;;;;;;5041650;28;20048;-64
2021/05/17 05:06:19;;;;;;;32.47;16.70;;;14.20;63.70;;;;;;5050666;28;20093;-63
2021/05/17 05:08:46;;;;;;;38.67;18.08;;;14.30;63.60;;;;;;5048515;28;20611;-64
2021/05/17 05:11:14;;;;;;;39.85;17.50;;;14.30;63.80;;;;;;5051284;28;20044;-63
2021/05/17 05:13:40;;;;;;;39.08;17.83;;;14.30;63.40;;;;;;5055882;28;20048;-63
2021/05/17 05:16:05;;;;;;;35.85;17.00;;;14.40;63.50;;;;;;5059848;28;20040;-63
2021/05/17 05:18:31;;;;;;;35.92;17.63;;;14.40;63.60;;;;;;5052167;28;20469;-63
2021/05/17 05:20:56;;;;;;;34.58;16.95;;;14.50;63.80;;;;;;5053704;28;20063;-63
2021/05/17 05:23:25;;;;;;;36.53;18.60;;;14.60;63.80;;;;;;5054300;28;20028;-64
2021/05/17 05:28:40;;;;;;;38.30;19.02;;;14.80;64.00;;;;;;5043295;28;20384;-63
2021/05/17 05:31:13;;;;;;;35.60;17.42;;;15.00;64.20;;;;;;5047602;28;20245;-63
2021/05/17 05:33:39;;;;;;;34.90;17.40;;;15.10;64.20;;;;;;5042324;28;20028;-63
2021/05/17 05:36:05;;;;;;;28.60;17.33;;;15.30;64.20;;;;;;5055612;28;20685;-63
2021/05/17 05:38:33;;;;;;;33.65;18.23;;;15.50;64.20;;;;;;5049882;28;20063;-63
2021/05/17 05:41:01;;;;;;;32.53;17.58;;;15.70;64.00;;;;;;5057095;28;20036;-64
2021/05/17 05:43:27;;;;;;;29.45;16.63;;;15.90;63.60;;;;;;5062584;28;20033;-63
2021/05/17 05:45:52;;;;;;;26.85;15.38;;;16.10;63.70;;;;;;5059199;28;20522;-64
2021/05/17 05:48:23;;;;;;;26.70;15.60;;;16.30;63.20;;;;;;5056688;28;20073;-64
2021/05/17 05:50:49;;;;;;;22.23;14.30;;;;;;;;;;5059726;28;20035;-64
2021/05/17 05:53:17;;;;;;;19.75;13.07;;;;;;;;;;5054746;28;20044;-64
2021/05/17 05:55:44;;;;;;;18.48;12.18;;;16.50;63.30;;;;;;5052104;28;20063;-64
2021/05/17 05:58:10;;;;;;;20.13;12.02;;;19.60;59.20;;;;;;5040202;28;20044;-64
2021/05/17 06:00:38;;;;;;;19.45;11.32;;;20.00;56.50;;;;;;5050351;28;20036;-64
2021/05/17 06:03:05;;;;;;;18.77;12.65;;;19.90;55.30;;;;;;5054260;28;20094;-63
2021/05/17 06:05:31;;;;;;;20.80;12.07;;;19.60;55.10;;;;;;5060582;28;20497;-63
2021/05/17 06:07:58;;;;;;;18.02;11.95;;;19.40;54.80;;;;;;5053436;28;20032;-64
2021/05/17 06:10:25;;;;;;;20.38;12.32;;;19.10;54.60;;;;;;5055024;28;20505;-64
2021/05/17 06:12:54;;;;;;;19.88;12.25;;;18.80;54.90;;;;;;5068729;28;20035;-64
2021/05/17 06:15:20;;;;;;;19.63;12.48;;;18.60;55.10;;;;;;5056680;28;20454;-64
2021/05/17 06:17:49;;;;;;;20.05;12.38;;;18.40;55.10;;;;;;5047407;28;20055;-63
2021/05/17 06:20:16;;;;;;;21.00;13.05;;;18.20;55.30;;;;;;5053531;28;20025;-63
2021/05/17 06:22:42;;;;;;;25.38;13.35;;;18.10;55.90;;;;;;5057752;28;20233;-64
2021/05/17 06:25:11;;;;;;;24.13;12.77;;;17.90;56.00;;;;;;5050294;28;20032;-64
2021/05/17 06:27:38;;;;;;;18.00;12.10;;;17.80;56.00;;;;;;5054896;28;20035;-64
2021/05/17 06:30:06;;;;;;;20.77;12.63;;;17.70;56.30;;;;;;5039926;28;20574;-63
2021/05/17 06:32:35;;;;;;;20.83;13.10;;;17.70;56.40;;;;;;5051404;28;20051;-63
2021/05/17 06:35:05;;;;;;;20.40;12.55;;;17.60;56.40;;;;;;5048668;28;20032;-63
2021/05/17 06:37:31;;;;;;;21.02;12.38;;;17.50;56.30;;;;;;5057010;28;20047;-63
2021/05/17 06:39:57;;;;;;;17.83;12.75;;;17.50;56.40;;;;;;5052141;28;20036;-63
2021/05/17 06:42:23;;;;;;;19.92;12.15;;;17.50;56.80;;;;;;5053918;28;20056;-63
2021/05/17 06:44:48;;;;;;;20.55;11.40;;;17.40;56.80;;;;;;5050894;28;20052;-63
2021/05/17 06:47:15;;;;;;;15.63;10.30;;;17.40;57.10;;;;;;5034950;28;20041;-63
2021/05/17 06:49:43;;;;;;;21.05;11.75;;;17.50;56.70;;;;;;5043624;28;20041;-64
2021/05/17 06:52:12;;;;;;;21.65;10.43;;;17.60;57.10;;;;;;5040278;28;20657;-63
2021/05/17 06:54:43;;;;;;;18.27;10.98;;;17.80;57.30;;;;;;5048171;28;20036;-63
2021/05/17 06:57:23;;;;;;;13.18;7.85;;;18.00;57.20;;;;;;5041727;28;20076;-63
2021/05/17 06:59:57;;;;;;;17.52;9.05;;;18.30;56.40;;;;;;5050839;28;20094;-63
2021/05/17 07:02:28;;;;;;;13.40;8.45;;;18.40;55.60;;;;;;5048498;28;20045;-64
2021/05/17 07:05:01;;;;;;;12.15;8.32;;;18.60;55.70;;;;;;5040631;28;20567;-64
2021/05/17 07:07:31;;;;;;;9.25;6.57;;;18.70;55.20;;;;;;5050313;28;20043;-63
2021/05/17 07:12:44;;;;;;;10.50;6.40;;;19.00;54.00;;;;;;5055530;28;20418;-63
2021/05/17 07:15:13;;;;;;;9.40;5.75;;;19.10;53.50;;;;;;5059899;28;20079;-63
2021/05/17 07:17:41;;;;;;;10.63;5.68;;;19.20;53.40;;;;;;5056438;28;20294;-63
2021/05/17 07:20:09;;;;;;;9.70;5.97;;;19.20;53.10;;;;;;5052131;28;20048;-64
2021/05/17 07:25:21;;;;;;;8.57;5.63;;;19.30;53.00;;;;;;5056844;28;20411;-64
2021/05/17 07:27:47;;;;;;;10.73;6.15;;;19.30;52.90;;;;;;5037993;28;20045;-64
2021/05/17 07:30:15;;;;;;;13.60;6.68;;;;;;;;;;5057165;28;20036;-64
2021/05/17 07:32:41;;;;;;;10.38;6.10;;;19.40;53.10;;;;;;5045325;28;20045;-63
2021/05/17 07:35:07;;;;;;;10.07;6.25;;;19.50;52.40;;;;;;5048654;28;20580;-63
2021/05/17 07:37:33;;;;;;;9.45;6.07;;;19.50;52.30;;;;;;5049633;28;20287;-64
2021/05/17 07:39:58;;;;;;;9.85;6.65;;;19.50;51.90;;;;;;5052318;28;20506;-64
2021/05/17 07:42:27;;;;;;;12.68;6.43;;;19.40;52.90;;;;;;5058310;28;20058;-63
2021/05/17 07:44:53;;;;;;;11.48;5.65;;;19.30;52.40;;;;;;5060268;28;20032;-63
2021/05/17 07:47:21;;;;;;;11.98;6.10;;;19.20;52.00;;;;;;5057417;28;20040;-63
2021/05/17 07:49:53;;;;;;;9.73;5.30;;;19.10;52.30;;;;;;5049393;28;25187;-64
2021/05/17 07:52:22;;;;;;;10.93;4.97;;;18.90;52.40;;;;;;5051097;28;21428;-64
2021/05/17 07:54:48;;;;;;;8.48;4.88;;;18.80;53.00;;;;;;5056188;28;20037;-64
2021/05/17 07:57:15;;;;;;;11.68;4.60;;;18.80;53.50;;;;;;5056499;28;20044;-63
2021/05/17 07:59:43;;;;;;;7.15;4.82;;;18.80;53.20;;;;;;5050686;28;20063;-63
2021/05/17 08:02:08;;;;;;;8.02;5.50;;;18.80;53.10;;;;;;5051586;28;20197;-63
2021/05/17 08:04:34;;;;;;;8.95;5.57;;;18.80;53.20;;;;;;5054374;28;20537;-63
2021/05/17 08:07:02;;;;;;;6.70;5.18;;;18.80;53.00;;;;;;5050677;28;20032;-63
2021/05/17 08:09:30;;;;;;;7.43;5.05;;;18.80;52.60;;;;;;5048485;28;20044;-64
2021/05/17 08:11:58;;;;;;;6.28;4.80;;;18.70;52.70;;;;;;5050900;28;20922;-63
2021/05/17 08:14:23;;;;;;;6.05;4.20;;;18.70;53.00;;;;;;5045994;28;20056;-63
2021/05/17 08:16:53;;;;;;;6.80;4.68;;;18.80;53.20;;;;;;5055015;28;20037;-63
2021/05/17 08:19:19;;;;;;;6.90;4.85;;;18.90;53.40;;;;;;5047260;28;20127;-64
2021/05/17 08:21:45;;;;;;;9.00;5.43;;;19.00;53.20;;;;;;5058381;28;20550;-63
2021/05/17 08:24:13;;;;;;;7.57;5.38;;;19.20;52.60;;;;;;5052073;28;20036;-64
2021/05/17 08:26:41;;;;;;;7.78;5.57;;;;;;;;;;5049386;28;20556;-64
2021/05/17 08:29:09;;;;;;;7.63;5.32;;;19.40;52.90;;;;;;5045458;28;20418;-63
2021/05/17 08:31:35;;;;;;;12.25;5.97;;;20.40;51.60;;;;;;5051428;28;20044;-64
2021/05/17 08:34:02;;;;;;;8.10;5.95;;;21.00;50.00;;;;;;5053832;28;20684;-64
2021/05/17 08:36:28;;;;;;;14.40;5.13;;;21.20;48.60;;;;;;5054443;28;20071;-63
2021/05/17 08:38:54;;;;;;;7.03;4.50;;;21.30;48.00;;;;;;5052266;28;20111;-63
2021/05/17 08:41:20;;;;;;;5.82;4.63;;;21.40;47.90;;;;;;5054711;28;20036;-64
2021/05/17 08:43:48;;;;;;;10.60;4.75;;;21.50;47.60;;;;;;5047994;28;20589;-64
2021/05/17 08:46:16;;;;;;;7.13;4.72;;;21.60;47.40;;;;;;5049005;28;20043;-63
2021/05/17 08:48:49;;;;;;;15.30;4.97;;;21.60;46.50;;;;;;5049995;28;20409;-63
2021/05/17 08:51:16;;;;;;;6.38;4.35;;;21.70;47.20;;;;;;5053308;28;20327;-64
2021/05/17 08:53:46;;;;;;;9.15;4.72;;;21.80;46.40;;;;;;5052963;28;20223;-63
2021/05/17 08:56:14;;;;;;;6.60;5.28;;;22.00;45.60;;;;;;5054659;28;20518;-63
2021/05/17 08:58:42;;;;;;;6.82;5.15;;;22.00;46.00;;;;;;5047552;28;20048;-63
2021/05/17 09:01:08;;;;;;;9.13;5.50;;;21.90;45.70;;;;;;5049181;28;20037;-63
2021/05/17 09:03:33;;;;;;;6.32;4.78;;;21.80;46.60;;;;;;5054555;28;20674;-64
2021/05/17 09:06:07;;;;;;;6.45;4.85;;;21.60;45.90;;;;;;5052324;28;20078;-64
2021/05/17 09:08:43;;;;;;;8.65;5.22;;;21.40;46.50;;;;;;5047470;28;20036;-63
2021/05/17 09:11:11;;;;;;;6.25;4.40;;;21.30;47.10;;;;;;5052886;28;20033;-63
2021/05/17 09:13:39;;;;;;;8.00;5.32;;;21.30;46.70;;;;;;5056370;28;20041;-63
2021/05/17 09:16:04;;;;;;;8.65;5.18;;;21.40;47.20;;;;;;5051156;28;20255;-64
2021/05/17 09:18:32;;;;;;;9.57;4.93;;;21.60;47.10;;;;;;5048776;28;20037;-64
2021/05/17 09:21:04;;;;;;;6.18;5.22;;;;;;;;;;5055201;28;20099;-63
2021/05/17 09:23:34;;;;;;;5.53;4.72;;;;;;;;;;5051237;28;20041;-64
2021/05/17 09:26:00;;;;;;;8.55;4.18;;;;;;;;;;5051374;28;20028;-64
2021/05/17 09:28:35;;;;;;;7.53;5.20;;;21.70;46.60;;;;;;5047124;28;20038;-63
2021/05/17 09:31:07;;;;;;;10.15;5.07;;;24.70;42.30;;;;;;5050748;28;20082;-64
2021/05/17 09:33:43;;;;;;;9.18;4.80;;;24.80;41.20;;;;;;5049320;28;20119;-64
2021/05/17 09:36:29;;;;;;;10.50;5.68;;;24.80;41.00;;;;;;5051594;28;20040;-64
2021/05/17 09:39:02;;;;;;;6.05;4.60;;;24.80;40.30;;;;;;5039330;28;20590;-64
2021/05/17 09:41:56;;;;;;;7.45;4.28;;;24.90;39.50;;;;;;5055507;28;20491;-63
2021/05/17 09:44:29;;;;;;;5.55;4.00;;;25.10;39.80;;;;;;5043809;28;20064;-64
2021/05/17 09:47:08;;;;;;;5.38;3.60;;;25.20;38.70;;;;;;5043955;28;20064;-64
2021/05/17 09:49:37;;;;;;;9.98;3.53;;;;;;;;;;5034877;28;20029;-64
2021/05/17 09:52:21;;;;;;;7.20;3.95;;;;;;;;;;5047723;28;20046;-64
2021/05/17 09:54:50;;;;;;;5.38;3.97;;;;;;;;;;5052858;28;20040;-64
2021/05/17 09:57:17;;;;;;;6.47;3.88;;;;;;;;;;5046108;28;20052;-64
2021/05/17 09:59:46;;;;;;;5.38;3.97;;;;;;;;;;5040216;28;20131;-64
2021/05/17 10:02:31;;;;;;;6.88;3.03;;;;;;;;;;5045139;28;20040;-64
2021/05/17 10:04:58;;;;;;;4.90;2.97;;;;;;;;;;5048194;28;20033;-64
2021/05/17 10:07:29;;;;;;;5.30;2.40;;;;;;;;;;5048876;28;20170;-64
2021/05/17 10:09:55;;;;;;;7.50;3.42;;;;;;;;;;5052932;28;20039;-63
2021/05/17 10:12:21;;;;;;;6.03;3.85;;;;;;;;;;5046727;28;20528;-63
2021/05/17 10:14:47;;;;;;;5.28;3.78;;;;;;;;;;5052297;28;24391;-64
2021/05/17 10:17:16;;;;;;;5.75;3.55;;;;;;;;;;5033872;28;20571;-64
2021/05/17 10:19:42;;;;;;;3.75;3.38;;;;;;;;;;5051473;28;20086;-64
2021/05/17 10:22:10;;;;;;;4.88;3.88;;;;;;;;;;5047380;28;20040;-63
2021/05/17 10:24:36;;;;;;;4.97;3.70;;;26.50;38.60;;;;;;5046919;28;20594;-64
2021/05/17 10:27:03;;;;;;;5.97;3.45;;;25.70;34.70;;;;;;5047157;28;20048;-63
2021/05/17 10:29:39;;;;;;;5.85;3.83;;;25.20;35.80;;;;;;5046669;28;20439;-64
2021/05/17 10:32:09;;;;;;;6.80;3.55;;;24.90;36.60;;;;;;5052228;28;20128;-64
2021/05/17 10:35:07;;;;;;;5.32;3.72;;;24.60;37.00;;;;;;5048779;28;20056;-64
2021/05/17 10:37:36;;;;;;;6.63;3.78;;;24.60;37.20;;;;;;5046943;28;20517;-64
2021/05/17 10:40:05;;;;;;;5.82;3.55;;;24.60;37.00;;;;;;5048870;28;20469;-64
2021/05/17 10:42:56;;;;;;;3.72;3.40;;;24.30;37.60;;;;;;5048671;28;20120;-64
2021/05/17 10:48:22;;;;;;;5.32;4.80;;;23.40;38.80;;;;;;5050242;28;20479;-63
2021/05/17 10:50:51;;;;;;;5.95;4.90;;;23.00;40.20;;;;;;5046384;28;21476;-63
2021/05/17 10:53:41;;;;;;;10.05;6.75;;;22.60;41.90;;;;;;5046095;28;20079;-64
2021/05/17 10:56:08;;;;;;;9.48;6.97;;;22.10;42.70;;;;;;5047531;28;20437;-64
2021/05/17 11:01:57;;;;;;;9.15;6.47;;;21.40;44.90;;;;;;5047855;28;20052;-64
2021/05/17 11:04:56;;;;;;;6.15;4.80;;;21.10;46.30;;;;;;5046915;28;20039;-63
2021/05/17 11:07:25;;;;;;;3.38;2.50;;;20.90;46.90;;;;;;5056965;28;20075;-63
2021/05/17 11:09:55;;;;;;;2.47;2.15;;;20.80;46.60;;;;;;5052977;28;20112;-64
2021/05/17 11:12:32;;;;;;;2.83;1.95;;;20.80;46.80;;;;;;5053315;28;20386;-64
2021/05/17 11:15:09;;;;;;;4.45;1.88;;;21.00;47.00;;;;;;5047204;28;20110;-64
2021/05/17 11:17:52;;;;;;;2.22;1.67;;;21.60;46.70;;;;;;5052757;28;20059;-63
2021/05/17 11:23:12;;;;;;;3.63;2.15;;;22.80;44.70;;;;;;5055451;28;20036;-64
2021/05/17 11:28:39;;;;;;;3.67;3.33;;;22.90;43.60;;;;;;5060751;28;20502;-64
2021/05/17 11:31:27;;;;;;;6.05;4.00;;;22.80;42.80;;;;;;5052513;28;20112;-64
2021/05/17 11:33:58;;;;;;;6.22;3.50;;;22.60;43.90;;;;;;5057410;28;20034;-64
2021/05/17 11:36:32;;;;;;;5.10;3.25;;;22.40;43.90;;;;;;5057912;28;20056;-64
2021/05/17 11:41:42;;;;;;;4.32;3.35;;;22.10;45.70;;;;;;5058402;28;20514;-63
2021/05/17 11:44:31;;;;;;;5.25;3.60;;;22.00;46.10;;;;;;5063474;28;20458;-63
2021/05/17 11:47:08;;;;;;;5.85;4.13;;;21.80;46.40;;;;;;5049245;28;20090;-63
2021/05/17 11:49:36;;;;;;;4.70;3.38;;;21.70;47.30;;;;;;5066230;28;20091;-63
2021/05/17 11:52:12;;;;;;;4.18;3.50;;;21.70;48.00;;;;;;5052035;28;20029;-63
2021/05/17 11:54:45;;;;;;;5.07;3.17;;;22.00;47.80;;;;;;5056557;28;20032;-64
2021/05/17 11:57:16;;;;;;;5.38;3.13;;;22.50;47.30;;;;;;5058904;28;20087;-64
2021/05/17 11:59:41;;;;;;;6.75;3.33;;;22.90;45.40;;;;;;5056128;28;20036;-63
2021/05/17 12:02:11;;;;;;;4.85;3.65;;;23.10;45.20;;;;;;5041195;28;20029;-63
2021/05/17 12:04:44;;;;;;;4.40;3.45;;;23.20;45.20;;;;;;5057191;28;20445;-64
2021/05/17 12:07:14;;;;;;;5.65;3.60;;;23.50;45.50;;;;;;5046776;28;20049;-63
2021/05/17 12:09:43;;;;;;;3.92;3.35;;;23.90;44.60;;;;;;5050481;28;20036;-64
2021/05/17 12:12:15;;;;;;;4.68;3.67;;;24.10;43.40;;;;;;5047216;28;20075;-64
2021/05/17 12:14:43;;;;;;;4.47;4.05;;;24.10;43.10;;;;;;5055570;28;20047;-63
2021/05/17 12:17:12;;;;;;;4.28;3.80;;;;;;;;;;5048721;28;20033;-64
2021/05/17 12:19:41;;;;;;;6.10;4.40;;;;;;;;;;5052438;28;20492;-64
2021/05/17 12:22:11;;;;;;;8.77;4.18;;;;;;;;;;5057801;28;20036;-64
2021/05/17 12:24:37;;;;;;;7.68;4.70;;;;;;;;;;5053528;28;20047;-64
2021/05/17 12:27:09;;;;;;;4.10;3.60;;;24.30;43.60;;;;;;5060810;28;20119;-63
2021/05/17 12:29:59;;;;;;;6.32;4.07;;;24.50;40.20;;;;;;5062449;28;20055;-63
2021/05/17 12:32:37;;;;;;;5.55;4.25;;;24.20;41.20;;;;;;5052262;28;20655;-64
2021/05/17 12:35:07;;;;;;;6.45;2.90;;;24.00;42.60;;;;;;5054427;28;20514;-64
2021/05/17 12:37:42;;;;;;;3.85;2.38;;;24.00;42.60;;;;;;5056070;28;20082;-63
2021/05/17 12:40:19;;;;;;;2.20;1.70;;;24.00;41.70;;;;;;5056929;28;20043;-63
2021/05/17 12:42:56;;;;;;;1.92;1.38;;;23.90;41.50;;;;;;5055141;28;20041;-64
2021/05/17 12:45:24;;;;;;;3.45;1.70;;;23.80;40.80;;;;;;5062209;28;20416;-63
2021/05/17 12:47:51;;;;;;;2.65;1.67;;;23.50;41.00;;;;;;5059235;28;21082;-64
2021/05/17 12:50:25;;;;;;;5.40;1.63;;;23.30;41.30;;;;;;5048664;28;20045;-63
2021/05/17 12:53:06;;;;;;;2.35;1.45;;;23.10;41.50;;;;;;5052338;28;20115;-64
2021/05/17 12:55:49;;;;;;;2.25;1.45;;;22.90;41.80;;;;;;5054634;28;20169;-64
2021/05/17 12:58:27;;;;;;;1.63;1.35;;;22.70;42.30;;;;;;5053308;28;20533;-63
2021/05/17 13:00:56;;;;;;;5.18;1.60;;;22.70;43.40;;;;;;5057958;28;20036;-63
2021/05/17 13:03:46;;;;;;;2.50;1.90;;;22.80;43.60;;;;;;5055389;28;20033;-63
2021/05/17 13:06:29;;;;;;;2.58;1.50;;;22.90;43.40;;;;;;5055245;28;20037;-64
2021/05/17 13:09:00;;;;;;;3.50;1.75;;;23.00;42.80;;;;;;5053476;28;20039;-64
2021/05/17 13:11:30;;;;;;;3.65;1.80;;;22.90;42.90;;;;;;5051435;28;20491;-63
2021/05/17 13:14:02;;;;;;;2.97;2.10;;;22.70;43.50;;;;;;5053830;28;20056;-63
2021/05/17 13:16:36;;;;;;;3.13;2.20;;;22.60;43.40;;;;;;5055299;28;20051;-63
2021/05/17 13:19:24;;;;;;;4.30;1.90;;;22.60;44.50;;;;;;5049130;28;20546;-65
2021/05/17 13:30:59;;;;;;;2.58;2.00;;;22.30;45.30;;;;;;5051617;28;20031;-64
2021/05/17 13:33:32;;;;;;;2.72;2.35;;;22.30;45.80;;;;;;5041914;28;20533;-63
2021/05/17 13:36:03;;;;;;;2.85;2.47;;;22.20;45.60;;;;;;5031484;28;20037;-64
2021/05/17 13:38:34;;;;;;;2.92;2.10;;;22.20;46.00;;;;;;5048005;28;20060;-63